Time;durP1;ratioP1;P1;durP2;ratioP2;P2;SDS_P1;SDS_P2;PMS_P1;PMS_P2;Temp;Humidity;BMP_temperature;BMP_pressure;BME280_temperature;BME280_humidity;BME280_pressure;Samples;Min_cycle;Max_cycle;Signal;HPM_P1;HPM_P2
2022/05/17 00:00:18;;;;;;;5.72;2.00;;;17.70;67.60;;;;;;5045491;28;20052;-68
2022/05/17 00:02:44;;;;;;;6.10;2.10;;;17.60;67.80;;;;;;5041409;28;20395;-68
2022/05/17 00:05:09;;;;;;;5.25;2.20;;;17.60;67.90;;;;;;5043208;28;20102;-68
2022/05/17 00:07:35;;;;;;;4.18;2.05;;;17.60;68.00;;;;;;5038674;28;20092;-69
2022/05/17 00:10:01;;;;;;;4.75;1.77;;;17.60;68.10;;;;;;5040349;28;20089;-68
2022/05/17 00:12:26;;;;;;;4.78;1.88;;;17.60;68.00;;;;;;5056812;28;20020;-69
2022/05/17 00:14:52;;;;;;;3.65;2.00;;;17.60;67.90;;;;;;5044065;28;20033;-68
2022/05/17 00:17:19;;;;;;;5.88;2.50;;;17.60;68.30;;;;;;5036724;28;20034;-68
2022/05/17 00:19:45;;;;;;;3.20;1.83;;;17.50;68.10;;;;;;5042038;28;20025;-68
2022/05/17 00:22:10;;;;;;;5.15;2.10;;;17.50;68.90;;;;;;5035438;28;20037;-69
2022/05/17 00:24:36;;;;;;;3.67;1.90;;;17.50;68.30;;;;;;5034912;28;22312;-68
2022/05/17 00:27:03;;;;;;;3.97;1.85;;;17.50;68.40;;;;;;5043278;28;20033;-68
2022/05/17 00:29:29;;;;;;;4.93;1.92;;;17.40;68.50;;;;;;5047190;28;20482;-67
2022/05/17 00:31:54;;;;;;;5.72;1.95;;;17.40;68.60;;;;;;5045032;28;20035;-68
2022/05/17 00:34:20;;;;;;;5.20;2.42;;;17.40;68.80;;;;;;5040141;28;20041;-69
2022/05/17 00:36:46;;;;;;;5.00;2.00;;;17.30;69.30;;;;;;5040562;28;20034;-70
2022/05/17 00:39:11;;;;;;;5.93;2.28;;;17.30;69.30;;;;;;5047759;28;20059;-70
2022/05/17 00:41:37;;;;;;;4.28;2.10;;;17.30;69.40;;;;;;5039993;28;20410;-69
2022/05/17 00:46:59;;;;;;;5.10;2.20;;;17.30;69.30;;;;;;5044155;28;20072;-69
2022/05/17 00:49:33;;;;;;;5.78;2.13;;;17.40;70.20;;;;;;5044601;28;20025;-69
2022/05/17 00:52:06;;;;;;;6.88;2.38;;;17.40;69.50;;;;;;5042128;28;20033;-67
2022/05/17 00:54:32;;;;;;;4.88;2.13;;;17.40;69.60;;;;;;5043910;28;20116;-67
2022/05/17 00:57:22;;;;;;;4.90;2.30;;;17.40;69.50;;;;;;5042278;28;20083;-67
2022/05/17 00:59:49;;;;;;;4.82;2.03;;;17.40;69.60;;;;;;5044788;28;20099;-67
2022/05/17 01:02:15;;;;;;;4.50;2.03;;;17.40;69.60;;;;;;5036401;28;20507;-69
2022/05/17 01:04:41;;;;;;;6.15;2.40;;;17.40;69.50;;;;;;5040877;28;20052;-69
2022/05/17 01:07:12;;;;;;;5.30;2.30;;;17.40;69.60;;;;;;5038368;28;20051;-67
2022/05/17 01:09:37;;;;;;;7.32;4.05;;;17.30;69.60;;;;;;5044478;28;20132;-67
2022/05/17 01:12:03;;;;;;;5.63;2.70;;;17.30;69.80;;;;;;5041947;28;20491;-68
2022/05/17 01:17:13;;;;;;;5.28;2.35;;;17.30;69.70;;;;;;5038626;28;20036;-67
2022/05/17 01:19:41;;;;;;;7.10;2.28;;;17.30;69.70;;;;;;5036632;28;20021;-67
2022/05/17 01:22:07;;;;;;;5.07;2.50;;;17.30;69.70;;;;;;5043291;28;20055;-69
2022/05/17 01:24:33;;;;;;;3.95;2.08;;;17.30;69.70;;;;;;5037931;28;20115;-68
2022/05/17 01:27:07;;;;;;;5.93;2.42;;;17.30;69.70;;;;;;5037644;28;20049;-69
2022/05/17 01:29:44;;;;;;;5.00;2.20;;;17.20;69.80;;;;;;5045299;28;20036;-69
2022/05/17 01:32:12;;;;;;;3.90;2.30;;;17.20;70.00;;;;;;5034195;28;20030;-69
2022/05/17 01:34:38;;;;;;;6.45;2.72;;;17.20;70.00;;;;;;5062775;28;20056;-69
2022/05/17 01:37:05;;;;;;;7.25;2.65;;;17.20;70.00;;;;;;5048820;28;20052;-68
2022/05/17 01:39:32;;;;;;;5.05;2.40;;;17.20;70.00;;;;;;5059915;28;20116;-69
2022/05/17 01:41:57;;;;;;;3.80;2.30;;;17.20;70.00;;;;;;5036234;28;20029;-69
2022/05/17 01:44:23;;;;;;;4.70;2.28;;;17.20;70.00;;;;;;5038596;28;20029;-68
2022/05/17 01:46:49;;;;;;;5.97;2.42;;;17.20;69.90;;;;;;5037176;28;20024;-69
2022/05/17 01:49:15;;;;;;;5.65;2.97;;;17.20;69.90;;;;;;5035653;28;20017;-69
2022/05/17 01:51:40;;;;;;;5.45;3.03;;;17.20;70.20;;;;;;5043711;28;20078;-69
2022/05/17 01:54:06;;;;;;;4.18;2.58;;;17.20;70.20;;;;;;5044002;28;20115;-69
2022/05/17 01:56:34;;;;;;;6.43;2.72;;;17.20;70.20;;;;;;5045003;28;20017;-71
2022/05/17 01:59:00;;;;;;;6.40;2.97;;;17.20;70.30;;;;;;5044339;28;20021;-69
2022/05/17 02:01:26;;;;;;;6.47;2.60;;;17.10;70.40;;;;;;5047893;28;20036;-70
2022/05/17 02:03:52;;;;;;;4.70;2.42;;;17.10;70.50;;;;;;5050958;28;20037;-71
2022/05/17 02:06:18;;;;;;;4.78;2.38;;;17.10;70.30;;;;;;5046610;28;20017;-70
2022/05/17 02:08:44;;;;;;;5.03;2.40;;;17.20;70.20;;;;;;5048951;28;20025;-71
2022/05/17 02:11:10;;;;;;;4.70;2.20;;;17.20;70.10;;;;;;5046662;28;20044;-70
2022/05/17 02:13:38;;;;;;;4.43;2.70;;;17.20;70.10;;;;;;5046351;28;20028;-69
2022/05/17 02:16:05;;;;;;;4.22;2.28;;;17.20;70.10;;;;;;5045533;28;20033;-69
2022/05/17 02:18:30;;;;;;;5.32;2.50;;;17.20;70.20;;;;;;5042684;28;20602;-69
2022/05/17 02:20:56;;;;;;;6.43;2.35;;;17.10;70.20;;;;;;5044311;28;20025;-69
2022/05/17 02:23:21;;;;;;;6.63;2.38;;;17.10;70.20;;;;;;5047109;28;20360;-68
2022/05/17 02:25:47;;;;;;;4.90;2.10;;;17.20;70.20;;;;;;5056769;28;20024;-70
2022/05/17 02:28:13;;;;;;;5.07;2.10;;;17.10;70.10;;;;;;5044242;28;20428;-71
2022/05/17 02:30:41;;;;;;;5.53;2.70;;;17.20;70.10;;;;;;5061604;28;20525;-69
2022/05/17 02:33:07;;;;;;;3.08;1.67;;;17.20;70.10;;;;;;5045748;28;20424;-71
2022/05/17 02:35:33;;;;;;;3.70;2.00;;;17.20;70.00;;;;;;5049410;28;20024;-71
2022/05/17 02:37:59;;;;;;;4.00;1.95;;;17.20;70.00;;;;;;5039321;28;20099;-69
2022/05/17 02:40:25;;;;;;;5.00;2.45;;;17.20;69.90;;;;;;5056787;28;20648;-69
2022/05/17 02:42:51;;;;;;;4.90;2.28;;;17.20;69.90;;;;;;5043744;28;20034;-69
2022/05/17 02:45:17;;;;;;;3.90;2.20;;;17.30;69.90;;;;;;5061908;28;20032;-69
2022/05/17 02:47:42;;;;;;;3.70;2.15;;;17.30;69.90;;;;;;5054289;28;20364;-69
2022/05/17 02:50:11;;;;;;;4.53;2.10;;;17.30;69.90;;;;;;5044225;28;20478;-69
2022/05/17 02:52:38;;;;;;;5.05;2.30;;;17.30;69.90;;;;;;5044855;28;20044;-68
2022/05/17 02:55:05;;;;;;;4.32;2.50;;;17.30;69.80;;;;;;5043513;28;20529;-68
2022/05/17 02:57:30;;;;;;;8.60;4.38;;;17.30;69.80;;;;;;5046455;28;20033;-68
2022/05/17 02:59:56;;;;;;;6.40;3.75;;;17.20;69.80;;;;;;5052443;28;20111;-70
2022/05/17 03:02:22;;;;;;;5.78;3.10;;;17.20;69.90;;;;;;5058772;28;20025;-70
2022/05/17 03:04:47;;;;;;;5.40;2.50;;;17.20;70.10;;;;;;5044341;28;20032;-70
2022/05/17 03:07:13;;;;;;;5.28;2.28;;;17.20;70.10;;;;;;5042839;28;20032;-70
2022/05/17 03:09:38;;;;;;;6.50;2.97;;;17.10;70.10;;;;;;5053005;28;20049;-70
2022/05/17 03:12:05;;;;;;;4.75;2.38;;;17.10;70.30;;;;;;5057657;28;20044;-69
2022/05/17 03:14:30;;;;;;;3.97;2.22;;;17.00;70.30;;;;;;5049172;28;20028;-69
2022/05/17 03:16:56;;;;;;;4.72;2.70;;;17.00;70.40;;;;;;5041810;28;20037;-70
2022/05/17 03:19:22;;;;;;;4.97;2.80;;;17.10;70.50;;;;;;5049490;28;20116;-70
2022/05/17 03:21:48;;;;;;;4.88;2.53;;;17.00;70.40;;;;;;5044331;28;20403;-70
2022/05/17 03:24:13;;;;;;;3.35;2.20;;;17.00;70.50;;;;;;5043839;28;20183;-69
2022/05/17 03:26:40;;;;;;;3.80;2.00;;;17.00;70.50;;;;;;5047544;28;20025;-70
2022/05/17 03:29:06;;;;;;;4.78;2.30;;;16.90;70.50;;;;;;5046006;28;20044;-69
2022/05/17 03:31:33;;;;;;;4.30;2.30;;;16.90;70.60;;;;;;5048724;28;20051;-69
2022/05/17 03:33:58;;;;;;;4.15;2.50;;;16.90;70.70;;;;;;5046475;28;20525;-69
2022/05/17 03:36:24;;;;;;;4.75;2.15;;;16.90;70.70;;;;;;5042906;28;20033;-68
2022/05/17 03:38:49;;;;;;;3.88;2.00;;;16.90;70.70;;;;;;5046219;28;20024;-68
2022/05/17 03:41:15;;;;;;;3.80;2.00;;;16.90;70.80;;;;;;5042659;28;20032;-70
2022/05/17 03:43:40;;;;;;;3.72;2.30;;;16.90;70.90;;;;;;5047516;28;20033;-70
2022/05/17 03:46:08;;;;;;;4.38;2.28;;;16.90;71.00;;;;;;5046267;28;20103;-70
2022/05/17 03:48:34;;;;;;;4.03;2.20;;;16.90;70.80;;;;;;5045855;28;20028;-71
2022/05/17 03:51:00;;;;;;;4.63;2.30;;;16.90;70.70;;;;;;5044519;28;20029;-70
2022/05/17 03:53:25;;;;;;;4.47;2.20;;;16.90;70.60;;;;;;5042294;28;20025;-71
2022/05/17 03:55:51;;;;;;;4.43;2.28;;;16.90;70.60;;;;;;5046511;28;20913;-70
2022/05/17 03:58:16;;;;;;;3.97;2.30;;;17.00;70.70;;;;;;5039814;28;20037;-70
2022/05/17 04:00:42;;;;;;;5.03;1.98;;;17.00;70.60;;;;;;5039312;28;20027;-69
2022/05/17 04:03:07;;;;;;;4.45;2.00;;;17.00;70.60;;;;;;5045042;28;20475;-70
2022/05/17 04:05:33;;;;;;;4.00;2.05;;;17.00;70.70;;;;;;5046595;28;20411;-69
2022/05/17 04:07:59;;;;;;;4.07;2.28;;;17.00;70.80;;;;;;5045511;28;20025;-70
2022/05/17 04:10:24;;;;;;;3.42;2.00;;;17.00;70.80;;;;;;5046169;28;20497;-69
2022/05/17 04:12:50;;;;;;;4.05;1.98;;;17.10;70.70;;;;;;5050441;28;20032;-69
2022/05/17 04:15:19;;;;;;;4.30;2.20;;;17.10;70.60;;;;;;5042412;28;20021;-70
2022/05/17 04:17:45;;;;;;;3.38;2.15;;;17.20;70.50;;;;;;5040024;28;20037;-70
2022/05/17 04:20:12;;;;;;;4.00;1.90;;;17.30;70.30;;;;;;5045612;28;20021;-70
2022/05/17 04:22:50;;;;;;;3.83;2.20;;;17.30;70.20;;;;;;5054792;28;20035;-70
2022/05/17 04:25:20;;;;;;;3.85;2.00;;;17.40;70.20;;;;;;5043647;28;20017;-69
2022/05/17 04:27:49;;;;;;;4.03;1.90;;;17.40;70.20;;;;;;5054870;28;20021;-70
2022/05/17 04:30:15;;;;;;;3.97;2.10;;;17.50;70.30;;;;;;5040281;28;20021;-72
2022/05/17 04:32:41;;;;;;;4.97;2.40;;;17.50;70.30;;;;;;5048613;28;20036;-69
2022/05/17 04:35:07;;;;;;;3.70;2.40;;;17.60;70.20;;;;;;5037064;28;20089;-67
2022/05/17 04:37:33;;;;;;;3.10;1.80;;;17.70;70.00;;;;;;5039096;28;21132;-67
2022/05/17 04:39:58;;;;;;;3.63;1.95;;;17.70;69.90;;;;;;5040596;28;20024;-69
2022/05/17 04:42:24;;;;;;;3.72;1.92;;;17.70;70.00;;;;;;5043622;28;20033;-68
2022/05/17 04:44:50;;;;;;;2.88;1.98;;;17.70;70.00;;;;;;5042874;28;20029;-69
2022/05/17 04:47:16;;;;;;;5.35;2.30;;;17.80;70.00;;;;;;5050344;28;20078;-69
2022/05/17 04:49:42;;;;;;;4.07;2.25;;;17.80;69.90;;;;;;5039793;28;20080;-69
2022/05/17 04:52:08;;;;;;;3.40;2.13;;;17.80;69.70;;;;;;5051362;28;20536;-68
2022/05/17 04:54:34;;;;;;;4.50;2.47;;;17.80;69.70;;;;;;5050679;28;20452;-70
2022/05/17 04:56:59;;;;;;;3.60;2.10;;;17.80;69.80;;;;;;5044343;28;20033;-71
2022/05/17 04:59:25;;;;;;;5.07;2.10;;;17.80;69.90;;;;;;5044399;28;20033;-68
2022/05/17 05:01:50;;;;;;;3.95;2.40;;;17.90;69.80;;;;;;5044585;28;20064;-70
2022/05/17 05:04:17;;;;;;;4.47;2.65;;;18.00;69.90;;;;;;5053355;28;20521;-69
2022/05/17 05:06:43;;;;;;;5.57;2.40;;;18.00;70.00;;;;;;5043196;28;20040;-69
2022/05/17 05:09:10;;;;;;;4.13;2.10;;;18.00;70.00;;;;;;5045084;28;20029;-69
2022/05/17 05:11:36;;;;;;;4.05;2.05;;;18.20;69.90;;;;;;5043915;28;20103;-69
2022/05/17 05:14:01;;;;;;;3.00;1.90;;;18.30;69.70;;;;;;5046852;28;20112;-69
2022/05/17 05:16:27;;;;;;;4.15;2.20;;;18.30;69.40;;;;;;5041187;28;20036;-70
2022/05/17 05:18:52;;;;;;;4.22;2.20;;;18.40;69.20;;;;;;5044363;28;20054;-70
2022/05/17 05:21:19;;;;;;;4.40;2.15;;;18.50;69.10;;;;;;5039365;28;20032;-69
2022/05/17 05:23:45;;;;;;;3.60;1.75;;;18.60;68.80;;;;;;5039505;28;20420;-70
2022/05/17 05:26:12;;;;;;;4.30;1.90;;;18.70;68.50;;;;;;5038939;28;20025;-70
2022/05/17 05:28:39;;;;;;;3.25;1.80;;;18.90;68.20;;;;;;5041527;28;20048;-70
2022/05/17 05:31:07;;;;;;;2.60;1.33;;;18.90;68.10;;;;;;5040539;28;20028;-70
2022/05/17 05:33:34;;;;;;;5.07;2.17;;;19.00;68.00;;;;;;5038391;28;20484;-70
2022/05/17 05:36:00;;;;;;;2.97;1.50;;;19.00;67.80;;;;;;5036709;28;20053;-70
2022/05/17 05:38:26;;;;;;;3.30;1.80;;;19.20;67.60;;;;;;5040563;28;20242;-69
2022/05/17 05:40:51;;;;;;;4.07;1.70;;;19.30;67.00;;;;;;5038819;28;20036;-69
2022/05/17 05:43:17;;;;;;;2.85;1.73;;;19.60;66.50;;;;;;5047957;28;20035;-69
2022/05/17 05:45:43;;;;;;;2.50;1.70;;;19.60;66.00;;;;;;5043348;28;20516;-69
2022/05/17 05:48:08;;;;;;;1.95;1.42;;;19.60;65.80;;;;;;5047336;28;20388;-70
2022/05/17 05:50:34;;;;;;;2.78;1.40;;;19.60;65.70;;;;;;5051559;28;20087;-69
2022/05/17 05:53:06;;;;;;;3.45;1.67;;;19.60;65.70;;;;;;5049955;28;20013;-68
2022/05/17 05:55:34;;;;;;;2.65;1.50;;;19.60;65.60;;;;;;5061587;28;20055;-68
2022/05/17 05:58:00;;;;;;;3.20;1.52;;;19.60;65.50;;;;;;5055928;28;20024;-68
2022/05/17 06:00:27;;;;;;;5.93;1.60;;;19.50;65.30;;;;;;5061241;28;20031;-67
2022/05/17 06:02:53;;;;;;;3.85;1.42;;;19.50;65.20;;;;;;5053869;28;20017;-67
2022/05/17 06:05:20;;;;;;;3.55;1.50;;;19.50;65.10;;;;;;5059367;28;20557;-68
2022/05/17 06:07:45;;;;;;;3.58;1.50;;;19.40;65.10;;;;;;5056720;28;20100;-68
2022/05/17 06:10:13;;;;;;;4.22;1.63;;;19.40;65.10;;;;;;5050719;28;20104;-67
2022/05/17 06:12:39;;;;;;;2.70;1.58;;;19.40;65.00;;;;;;5039411;28;20037;-67
2022/05/17 06:15:05;;;;;;;4.32;1.60;;;19.50;65.00;;;;;;5043559;28;20028;-67
2022/05/17 06:17:30;;;;;;;5.40;1.75;;;19.50;64.90;;;;;;5045372;28;20055;-68
2022/05/17 06:19:57;;;;;;;2.88;1.60;;;19.50;64.90;;;;;;5049588;28;20028;-68
2022/05/17 06:22:24;;;;;;;2.47;1.65;;;19.50;64.90;;;;;;5049465;28;20419;-68
2022/05/17 06:24:49;;;;;;;1.95;1.45;;;19.60;64.80;;;;;;5049031;28;20441;-67
2022/05/17 06:27:15;;;;;;;3.28;1.50;;;19.60;64.80;;;;;;5049334;28;20104;-68
2022/05/17 06:29:40;;;;;;;3.10;1.67;;;19.60;64.60;;;;;;5046850;28;20372;-67
2022/05/17 06:32:15;;;;;;;3.60;1.88;;;19.60;64.60;;;;;;5045989;28;20847;-66
2022/05/17 06:34:41;;;;;;;7.03;2.13;;;19.60;64.40;;;;;;5047940;28;20399;-67
2022/05/17 06:37:07;;;;;;;2.20;1.50;;;19.70;64.30;;;;;;5049071;28;20029;-67
2022/05/17 06:39:34;;;;;;;4.65;1.85;;;19.70;64.00;;;;;;5046701;28;20025;-67
2022/05/17 06:42:00;;;;;;;3.65;1.65;;;19.80;63.90;;;;;;5036869;28;20383;-67
2022/05/17 06:44:26;;;;;;;2.55;1.50;;;19.80;63.70;;;;;;5048297;28;20036;-67
2022/05/17 06:46:54;;;;;;;4.53;1.88;;;19.80;63.60;;;;;;5051034;28;20123;-67
2022/05/17 06:49:20;;;;;;;4.65;1.63;;;20.00;63.40;;;;;;5051297;28;20044;-67
2022/05/17 06:51:45;;;;;;;5.13;1.80;;;20.20;62.80;;;;;;5048388;28;20477;-67
2022/05/17 06:54:11;;;;;;;4.45;1.90;;;20.40;62.40;;;;;;5050719;28;20025;-67
2022/05/17 06:56:36;;;;;;;2.03;1.15;;;20.50;62.00;;;;;;5050103;28;20056;-67
2022/05/17 06:59:03;;;;;;;3.50;1.45;;;20.80;61.40;;;;;;5049257;28;20029;-67
2022/05/17 07:01:28;;;;;;;3.08;1.40;;;20.90;60.70;;;;;;5051553;28;20036;-67
2022/05/17 07:03:54;;;;;;;3.15;1.60;;;21.10;60.60;;;;;;5043896;28;20025;-67
2022/05/17 07:06:20;;;;;;;3.08;1.33;;;21.30;60.00;;;;;;5041949;28;20036;-67
2022/05/17 07:08:46;;;;;;;4.00;1.40;;;21.40;59.50;;;;;;5048056;28;20025;-67
2022/05/17 07:13:56;;;;;;;3.90;1.45;;;21.60;58.60;;;;;;5049638;28;20040;-67
2022/05/17 07:16:22;;;;;;;3.63;1.30;;;21.50;58.60;;;;;;5050817;28;20036;-67
2022/05/17 07:18:48;;;;;;;2.30;1.00;;;21.30;58.50;;;;;;5050162;28;20098;-67
2022/05/17 07:21:14;;;;;;;2.53;1.13;;;21.30;58.80;;;;;;5047340;28;20021;-67
2022/05/17 07:23:40;;;;;;;3.53;1.05;;;21.20;58.90;;;;;;5048071;28;20046;-67
2022/05/17 07:26:07;;;;;;;3.10;1.13;;;21.20;59.00;;;;;;5049467;28;20017;-67
2022/05/17 07:28:42;;;;;;;3.15;1.20;;;21.10;59.10;;;;;;5048499;28;20036;-67
2022/05/17 07:31:08;;;;;;;2.28;1.10;;;21.10;58.80;;;;;;5049617;28;20021;-67
2022/05/17 07:33:34;;;;;;;4.75;1.48;;;21.00;58.90;;;;;;5050075;28;20033;-68
2022/05/17 07:36:01;;;;;;;3.97;1.10;;;20.80;58.70;;;;;;5044533;28;20041;-67
2022/05/17 07:38:27;;;;;;;4.63;1.63;;;20.80;59.00;;;;;;5049184;28;20048;-67
2022/05/17 07:40:53;;;;;;;4.18;1.08;;;20.70;59.10;;;;;;5047799;28;20067;-67
2022/05/17 07:43:19;;;;;;;5.20;1.20;;;20.70;59.20;;;;;;5050039;28;20098;-67
2022/05/17 07:45:47;;;;;;;4.00;1.08;;;20.70;59.30;;;;;;5046585;28;20112;-67
2022/05/17 07:48:13;;;;;;;2.30;0.90;;;20.70;59.30;;;;;;5048747;28;20021;-67
2022/05/17 07:50:38;;;;;;;2.65;1.17;;;20.70;59.20;;;;;;5048740;28;20025;-67
2022/05/17 07:53:06;;;;;;;2.38;0.98;;;20.80;59.30;;;;;;5049784;28;20031;-67
2022/05/17 07:55:34;;;;;;;2.38;1.00;;;20.80;59.30;;;;;;5048441;28;20033;-67
2022/05/17 07:57:59;;;;;;;3.05;1.17;;;20.70;59.30;;;;;;5048938;28;20071;-67
2022/05/17 08:00:25;;;;;;;2.83;1.20;;;20.70;59.50;;;;;;5049860;28;20147;-67
2022/05/17 08:02:53;;;;;;;4.68;1.58;;;20.70;59.50;;;;;;5048322;28;20631;-67
2022/05/17 08:05:18;;;;;;;3.20;1.17;;;20.70;59.50;;;;;;5048736;28;20053;-67
2022/05/17 08:07:44;;;;;;;2.42;1.00;;;20.70;59.60;;;;;;5041895;28;20435;-67
2022/05/17 08:10:09;;;;;;;3.85;1.30;;;20.70;59.70;;;;;;5044801;28;20021;-67
2022/05/17 08:12:35;;;;;;;2.60;1.10;;;20.70;59.70;;;;;;5046906;28;20025;-67
2022/05/17 08:15:01;;;;;;;2.20;1.08;;;20.70;59.70;;;;;;5046884;28;20025;-67
2022/05/17 08:17:26;;;;;;;2.38;1.10;;;20.70;59.80;;;;;;5049316;28;20028;-67
2022/05/17 08:19:52;;;;;;;3.47;1.20;;;20.70;59.70;;;;;;5049239;28;20636;-67
2022/05/17 08:22:17;;;;;;;3.97;1.23;;;20.70;59.50;;;;;;5050899;28;20505;-67
2022/05/17 08:27:34;;;;;;;2.90;1.10;;;20.80;59.40;;;;;;5046651;28;20048;-67
2022/05/17 08:30:00;;;;;;;2.88;1.00;;;20.80;59.30;;;;;;5040438;28;20021;-67
2022/05/17 08:35:10;;;;;;;5.47;1.58;;;20.70;59.20;;;;;;5045663;28;20068;-67
2022/05/17 08:37:35;;;;;;;3.95;1.13;;;20.70;59.20;;;;;;5041366;28;20485;-67
2022/05/17 08:40:01;;;;;;;2.97;0.95;;;20.70;59.00;;;;;;5048315;28;20035;-67
2022/05/17 08:42:41;;;;;;;4.20;1.30;;;20.80;58.90;;;;;;5050511;28;20028;-67
2022/05/17 08:45:15;;;;;;;3.67;1.23;;;20.70;58.70;;;;;;5044755;28;20029;-67
2022/05/17 08:47:51;;;;;;;3.75;1.00;;;20.80;58.50;;;;;;5046433;28;20021;-67
2022/05/17 08:50:25;;;;;;;2.20;0.90;;;20.90;58.20;;;;;;5043740;28;20410;-67
2022/05/17 08:52:53;;;;;;;3.58;1.10;;;20.90;57.90;;;;;;5042021;28;20033;-67
2022/05/17 08:55:32;;;;;;;2.13;1.08;;;20.90;57.80;;;;;;5039336;28;20513;-67
2022/05/17 08:58:03;;;;;;;4.15;1.20;;;21.00;57.80;;;;;;5030647;28;20029;-67
2022/05/17 09:00:39;;;;;;;4.10;1.20;;;20.80;57.50;;;;;;5032552;28;20032;-67
2022/05/17 09:03:18;;;;;;;3.67;1.08;;;20.90;57.80;;;;;;5049864;28;20036;-67
2022/05/17 09:06:04;;;;;;;2.78;1.00;;;21.00;57.70;;;;;;5043177;28;20099;-67
2022/05/17 09:08:35;;;;;;;3.95;1.00;;;21.10;57.50;;;;;;5039582;28;20017;-67
2022/05/17 09:11:26;;;;;;;1.98;1.05;;;21.20;57.40;;;;;;5050384;28;20028;-67
2022/05/17 09:14:09;;;;;;;2.08;0.95;;;21.20;57.20;;;;;;5050422;28;20032;-67
2022/05/17 09:16:40;;;;;;;3.47;1.08;;;21.30;57.10;;;;;;5038259;28;20036;-67
2022/05/17 09:19:06;;;;;;;1.73;1.03;;;21.40;57.00;;;;;;5043750;28;20108;-67
2022/05/17 09:21:36;;;;;;;4.75;1.40;;;21.40;56.40;;;;;;5045179;28;20515;-67
2022/05/17 09:24:05;;;;;;;4.63;1.60;;;21.10;56.70;;;;;;5044530;28;20497;-66
2022/05/17 09:26:31;;;;;;;4.03;1.48;;;21.10;57.50;;;;;;5048637;28;20021;-67
2022/05/17 09:29:23;;;;;;;2.80;1.20;;;21.20;57.00;;;;;;5036541;28;20430;-67
2022/05/17 09:32:01;;;;;;;3.58;1.50;;;21.20;56.90;;;;;;5044121;28;20092;-67
2022/05/17 09:34:37;;;;;;;3.08;1.13;;;21.20;56.60;;;;;;5039871;28;20546;-67
2022/05/17 09:37:11;;;;;;;2.22;0.93;;;21.10;56.80;;;;;;5038471;28;20025;-67
2022/05/17 09:39:37;;;;;;;3.78;1.38;;;21.20;56.70;;;;;;5041327;28;20044;-67
2022/05/17 09:42:06;;;;;;;4.88;1.50;;;21.20;56.50;;;;;;5047392;28;20025;-67
2022/05/17 09:44:33;;;;;;;3.30;1.23;;;21.10;56.80;;;;;;5044495;28;20064;-67
2022/05/17 09:47:03;;;;;;;2.97;1.35;;;21.20;56.90;;;;;;5050644;28;20108;-67
2022/05/17 09:52:34;;;;;;;6.18;1.50;;;21.40;56.50;;;;;;5050886;28;20039;-67
2022/05/17 09:55:09;;;;;;;4.72;1.55;;;21.50;56.60;;;;;;5044276;28;20455;-67
2022/05/17 09:57:36;;;;;;;4.43;1.50;;;21.40;56.50;;;;;;5044223;28;20079;-67
2022/05/17 10:00:12;;;;;;;2.63;1.20;;;21.40;56.60;;;;;;5040344;28;20074;-67
2022/05/17 10:03:00;;;;;;;3.60;1.45;;;21.50;56.80;;;;;;5041891;28;20475;-67
2022/05/17 10:05:38;;;;;;;5.65;1.60;;;21.50;56.60;;;;;;5049584;28;20021;-67
2022/05/17 10:08:12;;;;;;;5.63;1.70;;;21.60;56.60;;;;;;5049753;28;20021;-67
2022/05/17 10:10:43;;;;;;;2.97;1.25;;;21.60;56.50;;;;;;5049500;28;20083;-67
2022/05/17 10:13:18;;;;;;;3.88;1.45;;;21.70;56.50;;;;;;5033292;28;20559;-67
2022/05/17 10:15:47;;;;;;;5.68;1.52;;;21.70;56.90;;;;;;5042080;28;20465;-67
2022/05/17 10:18:52;;;;;;;3.42;1.20;;;21.80;56.10;;;;;;5049948;28;20029;-67
2022/05/17 10:21:27;;;;;;;4.40;1.42;;;22.00;55.90;;;;;;5051890;28;20033;-67
2022/05/17 10:24:30;;;;;;;4.15;1.48;;;22.20;55.70;;;;;;5053290;28;20078;-67
2022/05/17 10:27:09;;;;;;;6.65;1.70;;;22.10;54.70;;;;;;5037815;28;20032;-67
2022/05/17 10:29:45;;;;;;;4.60;1.73;;;22.30;55.10;;;;;;5049788;28;20465;-67
2022/05/17 10:32:20;;;;;;;5.07;2.10;;;22.50;54.40;;;;;;5050852;28;20017;-67
2022/05/17 10:35:18;;;;;;;5.53;1.85;;;22.40;54.00;;;;;;5052985;28;20025;-67
2022/05/17 10:37:49;;;;;;;4.72;1.90;;;22.50;54.30;;;;;;5050646;28;20067;-66
2022/05/17 10:40:35;;;;;;;5.22;1.90;;;22.90;54.20;;;;;;5050390;28;20028;-67
2022/05/17 10:43:02;;;;;;;5.85;2.40;;;23.00;53.60;;;;;;5047661;28;20024;-67
2022/05/17 10:45:35;;;;;;;3.22;1.42;;;22.90;52.90;;;;;;5051778;28;20056;-67
2022/05/17 10:48:38;;;;;;;5.78;1.90;;;23.10;53.40;;;;;;5052604;28;20518;-67
2022/05/17 10:51:29;;;;;;;4.55;1.85;;;23.10;53.40;;;;;;5052251;28;20403;-67
2022/05/17 10:54:09;;;;;;;5.30;2.45;;;23.10;53.10;;;;;;5052451;28;20029;-67
2022/05/17 10:56:50;;;;;;;5.03;2.40;;;23.30;53.30;;;;;;5052618;28;20035;-67
2022/05/17 10:59:45;;;;;;;6.40;3.35;;;23.50;52.90;;;;;;5052395;28;20028;-67
2022/05/17 11:02:56;;;;;;;7.32;3.05;;;23.40;52.60;;;;;;5052490;28;20029;-66
2022/05/17 11:05:39;;;;;;;4.90;2.75;;;23.30;52.80;;;;;;5043682;28;20056;-66
2022/05/17 11:08:21;;;;;;;5.15;3.13;;;23.50;53.10;;;;;;5041087;28;20075;-67
2022/05/17 11:11:15;;;;;;;5.85;2.53;;;23.70;52.80;;;;;;5041556;28;20036;-66
2022/05/17 11:13:53;;;;;;;5.70;2.67;;;24.00;52.60;;;;;;5043119;28;20749;-66
2022/05/17 11:16:28;;;;;;;6.72;2.53;;;23.90;52.30;;;;;;5042762;28;20136;-67
2022/05/17 11:19:07;;;;;;;6.57;3.20;;;24.00;52.30;;;;;;5042174;28;20097;-67
2022/05/17 11:21:55;;;;;;;6.75;2.83;;;23.80;52.50;;;;;;5040549;28;20030;-67
2022/05/17 11:24:42;;;;;;;5.43;3.08;;;23.70;52.60;;;;;;5039480;28;20087;-67
2022/05/17 11:27:29;;;;;;;6.82;3.10;;;23.70;52.80;;;;;;5043002;28;20051;-67
2022/05/17 11:30:12;;;;;;;5.47;2.30;;;23.70;53.00;;;;;;5040522;28;20018;-67
2022/05/17 11:32:42;;;;;;;6.35;2.90;;;23.80;53.00;;;;;;5040062;28;20018;-66
2022/05/17 11:35:26;;;;;;;6.72;3.10;;;23.90;52.80;;;;;;5039929;28;20390;-67
2022/05/17 11:37:52;;;;;;;5.03;2.70;;;23.90;52.20;;;;;;5042954;28;20036;-66
2022/05/17 11:40:43;;;;;;;6.72;3.20;;;23.70;52.80;;;;;;5041045;28;20025;-67
2022/05/17 11:45:56;;;;;;;7.40;3.17;;;23.90;52.80;;;;;;5042442;28;20074;-67
2022/05/17 11:48:42;;;;;;;5.97;3.10;;;23.90;52.20;;;;;;5040152;28;20021;-66
2022/05/17 11:51:07;;;;;;;7.55;2.97;;;23.90;52.20;;;;;;5042093;28;20067;-66
2022/05/17 11:53:42;;;;;;;6.03;3.22;;;23.90;52.40;;;;;;5038748;28;20021;-66
2022/05/17 11:56:25;;;;;;;7.35;3.33;;;23.90;52.50;;;;;;5040414;28;20020;-66
2022/05/17 11:58:54;;;;;;;6.95;3.17;;;23.90;52.70;;;;;;5041707;28;20036;-67
2022/05/17 12:01:29;;;;;;;6.88;3.47;;;23.70;52.80;;;;;;5040385;28;20479;-67
2022/05/17 12:04:04;;;;;;;8.60;3.53;;;23.60;53.20;;;;;;5039246;28;20049;-67
2022/05/17 12:06:38;;;;;;;4.85;2.53;;;23.50;53.30;;;;;;5039484;28;20394;-67
2022/05/17 12:09:32;;;;;;;3.70;2.00;;;23.60;53.10;;;;;;5038957;28;20034;-67
2022/05/17 12:12:23;;;;;;;5.18;2.50;;;23.90;52.70;;;;;;5040495;28;20025;-67
2022/05/17 12:15:13;;;;;;;3.92;2.03;;;24.00;52.00;;;;;;5040870;28;20506;-66
2022/05/17 12:17:44;;;;;;;4.60;2.22;;;24.30;51.60;;;;;;5031248;28;20028;-67
2022/05/17 12:20:16;;;;;;;6.57;3.08;;;24.60;50.90;;;;;;5031051;28;20064;-67
2022/05/17 12:23:23;;;;;;;4.22;2.05;;;24.50;50.00;;;;;;5031485;28;20022;-67
2022/05/17 12:26:21;;;;;;;4.38;2.28;;;24.60;50.00;;;;;;5027810;28;20049;-67
2022/05/17 12:28:52;;;;;;;4.43;2.13;;;24.60;49.80;;;;;;5029725;28;20035;-67
2022/05/17 12:31:26;;;;;;;4.00;2.30;;;24.80;49.60;;;;;;5031032;28;20105;-67
2022/05/17 12:33:52;;;;;;;4.10;1.88;;;24.80;49.40;;;;;;5030776;28;20037;-66
2022/05/17 12:36:23;;;;;;;5.60;2.65;;;25.10;49.70;;;;;;5030608;28;20032;-66
2022/05/17 12:44:33;;;;;;;5.68;3.00;;;25.50;48.80;;;;;;5031013;28;20566;-66
2022/05/17 12:46:58;;;;;;;5.53;2.90;;;25.70;48.60;;;;;;5030351;28;20112;-66
2022/05/17 12:49:32;;;;;;;6.03;3.50;;;25.80;48.80;;;;;;5030668;28;20056;-66
2022/05/17 12:52:29;;;;;;;4.95;3.15;;;25.50;48.50;;;;;;5052516;28;20499;-66
2022/05/17 12:54:58;;;;;;;5.80;3.40;;;25.70;49.00;;;;;;5047791;28;20102;-66
2022/05/17 12:57:31;;;;;;;7.63;4.00;;;25.80;49.20;;;;;;5048199;28;20163;-67
2022/05/17 13:00:15;;;;;;;7.43;3.60;;;25.60;48.60;;;;;;5041804;28;20025;-67
2022/05/17 13:02:48;;;;;;;6.50;4.03;;;25.80;49.00;;;;;;5049556;28;20032;-67
2022/05/17 13:05:39;;;;;;;5.95;3.38;;;25.70;48.30;;;;;;5049751;28;20061;-67
2022/05/17 13:08:10;;;;;;;5.47;3.20;;;25.90;48.60;;;;;;5042723;28;20086;-67
2022/05/17 13:10:38;;;;;;;6.07;3.15;;;25.80;48.50;;;;;;5049922;28;20621;-66
2022/05/17 13:13:21;;;;;;;5.15;3.05;;;25.90;48.60;;;;;;5049535;28;20021;-67
2022/05/17 13:15:53;;;;;;;6.72;2.83;;;25.90;48.10;;;;;;5049603;28;20278;-67
2022/05/17 13:18:19;;;;;;;3.58;1.70;;;25.90;47.90;;;;;;5049643;28;20150;-67
2022/05/17 13:20:48;;;;;;;6.13;2.65;;;26.20;48.00;;;;;;5049040;28;20028;-66
2022/05/17 13:23:18;;;;;;;5.32;2.47;;;26.40;47.30;;;;;;5046617;28;20037;-67
2022/05/17 13:25:45;;;;;;;4.90;2.20;;;26.50;47.10;;;;;;5048764;28;20495;-67
2022/05/17 13:28:22;;;;;;;4.35;2.17;;;26.60;46.90;;;;;;5049435;28;20159;-66